sensor_id;sensor_type;location;lat;lon;timestamp;temperature;humidity
18658;DHT22;9458;50.942;5.074;2024-02-15T00:00:51;12.70;99.90
18658;DHT22;9458;50.942;5.074;2024-02-15T00:03:18;12.70;99.90
18658;DHT22;9458;50.942;5.074;2024-02-15T00:05:45;12.70;99.90
18658;DHT22;9458;50.942;5.074;2024-02-15T00:08:12;12.70;99.90
18658;DHT22;9458;50.942;5.074;2024-02-15T00:10:42;12.70;99.90
18658;DHT22;9458;50.942;5.074;2024-02-15T00:13:11;12.70;99.90
18658;DHT22;9458;50.942;5.074;2024-02-15T00:15:38;12.70;99.90
18658;DHT22;9458;50.942;5.074;2024-02-15T00:18:05;12.70;99.90
18658;DHT22;9458;50.942;5.074;2024-02-15T00:20:32;12.70;99.90
18658;DHT22;9458;50.942;5.074;2024-02-15T00:22:59;12.70;99.90
18658;DHT22;9458;50.942;5.074;2024-02-15T00:25:26;12.70;99.90
18658;DHT22;9458;50.942;5.074;2024-02-15T00:27:55;12.70;99.90
18658;DHT22;9458;50.942;5.074;2024-02-15T00:30:21;12.70;99.90
18658;DHT22;9458;50.942;5.074;2024-02-15T00:32:48;12.70;99.90
18658;DHT22;9458;50.942;5.074;2024-02-15T00:35:16;12.70;99.90
18658;DHT22;9458;50.942;5.074;2024-02-15T00:37:44;12.70;99.90
18658;DHT22;9458;50.942;5.074;2024-02-15T00:40:11;12.70;99.90
18658;DHT22;9458;50.942;5.074;2024-02-15T00:42:38;12.70;99.90
18658;DHT22;9458;50.942;5.074;2024-02-15T00:45:07;12.70;99.90
18658;DHT22;9458;50.942;5.074;2024-02-15T00:47:34;12.70;99.90
18658;DHT22;9458;50.942;5.074;2024-02-15T00:50:01;12.80;99.90
18658;DHT22;9458;50.942;5.074;2024-02-15T00:52:28;12.70;99.90
18658;DHT22;9458;50.942;5.074;2024-02-15T00:54:56;12.70;99.90
18658;DHT22;9458;50.942;5.074;2024-02-15T00:57:23;12.70;99.90
18658;DHT22;9458;50.942;5.074;2024-02-15T00:59:49;12.80;99.90
18658;DHT22;9458;50.942;5.074;2024-02-15T01:02:18;12.70;99.90
18658;DHT22;9458;50.942;5.074;2024-02-15T01:04:45;12.70;99.90
18658;DHT22;9458;50.942;5.074;2024-02-15T01:07:12;12.70;99.90
18658;DHT22;9458;50.942;5.074;2024-02-15T01:09:39;12.80;99.90
18658;DHT22;9458;50.942;5.074;2024-02-15T01:12:06;12.70;99.90
18658;DHT22;9458;50.942;5.074;2024-02-15T01:14:32;12.70;99.90
18658;DHT22;9458;50.942;5.074;2024-02-15T01:17:00;12.70;99.90
18658;DHT22;9458;50.942;5.074;2024-02-15T01:19:28;12.70;99.90
18658;DHT22;9458;50.942;5.074;2024-02-15T01:21:55;12.80;99.90
18658;DHT22;9458;50.942;5.074;2024-02-15T01:24:24;12.80;99.90
18658;DHT22;9458;50.942;5.074;2024-02-15T01:26:52;12.70;99.90
18658;DHT22;9458;50.942;5.074;2024-02-15T01:29:18;12.70;99.90
18658;DHT22;9458;50.942;5.074;2024-02-15T01:31:46;12.70;99.90
18658;DHT22;9458;50.942;5.074;2024-02-15T01:34:12;12.80;99.90
18658;DHT22;9458;50.942;5.074;2024-02-15T01:36:41;12.80;99.90
18658;DHT22;9458;50.942;5.074;2024-02-15T01:39:08;12.80;99.90
18658;DHT22;9458;50.942;5.074;2024-02-15T01:41:34;12.80;99.90
18658;DHT22;9458;50.942;5.074;2024-02-15T01:44:01;12.70;99.90
18658;DHT22;9458;50.942;5.074;2024-02-15T01:46:29;12.80;99.90
18658;DHT22;9458;50.942;5.074;2024-02-15T01:48:56;12.80;99.90
18658;DHT22;9458;50.942;5.074;2024-02-15T01:51:24;12.70;99.90
18658;DHT22;9458;50.942;5.074;2024-02-15T01:53:54;12.70;99.90
18658;DHT22;9458;50.942;5.074;2024-02-15T01:56:23;12.70;99.90
18658;DHT22;9458;50.942;5.074;2024-02-15T01:58:51;12.70;99.90
18658;DHT22;9458;50.942;5.074;2024-02-15T02:01:19;12.70;99.90
18658;DHT22;9458;50.942;5.074;2024-02-15T02:04:08;12.70;99.90
18658;DHT22;9458;50.942;5.074;2024-02-15T02:07:02;12.70;99.90
18658;DHT22;9458;50.942;5.074;2024-02-15T02:09:33;12.70;99.90
18658;DHT22;9458;50.942;5.074;2024-02-15T02:12:01;12.70;99.90
18658;DHT22;9458;50.942;5.074;2024-02-15T02:14:43;12.70;99.90
18658;DHT22;9458;50.942;5.074;2024-02-15T02:17:13;12.70;99.90
18658;DHT22;9458;50.942;5.074;2024-02-15T02:19:41;12.70;99.90
18658;DHT22;9458;50.942;5.074;2024-02-15T02:22:09;12.70;99.90
18658;DHT22;9458;50.942;5.074;2024-02-15T02:24:44;12.70;99.90
18658;DHT22;9458;50.942;5.074;2024-02-15T02:27:13;12.70;99.90
18658;DHT22;9458;50.942;5.074;2024-02-15T02:29:42;12.70;99.90
18658;DHT22;9458;50.942;5.074;2024-02-15T02:32:10;12.70;99.90
18658;DHT22;9458;50.942;5.074;2024-02-15T02:34:37;12.70;99.90
18658;DHT22;9458;50.942;5.074;2024-02-15T02:37:04;12.70;99.90
18658;DHT22;9458;50.942;5.074;2024-02-15T02:39:33;12.70;99.90
18658;DHT22;9458;50.942;5.074;2024-02-15T02:42:00;12.70;99.90
18658;DHT22;9458;50.942;5.074;2024-02-15T02:44:28;12.70;99.90
18658;DHT22;9458;50.942;5.074;2024-02-15T02:46:55;12.70;99.90
18658;DHT22;9458;50.942;5.074;2024-02-15T02:49:21;12.60;99.90
18658;DHT22;9458;50.942;5.074;2024-02-15T02:51:48;12.60;99.90
18658;DHT22;9458;50.942;5.074;2024-02-15T02:54:15;12.60;99.90
18658;DHT22;9458;50.942;5.074;2024-02-15T02:56:42;12.60;99.90
18658;DHT22;9458;50.942;5.074;2024-02-15T02:59:10;12.60;99.90
18658;DHT22;9458;50.942;5.074;2024-02-15T03:01:39;12.60;99.90
18658;DHT22;9458;50.942;5.074;2024-02-15T03:04:07;12.60;99.90
18658;DHT22;9458;50.942;5.074;2024-02-15T03:06:33;12.60;99.90
18658;DHT22;9458;50.942;5.074;2024-02-15T03:09:00;12.60;99.90
18658;DHT22;9458;50.942;5.074;2024-02-15T03:11:27;12.60;99.90
18658;DHT22;9458;50.942;5.074;2024-02-15T03:13:54;12.60;99.90
18658;DHT22;9458;50.942;5.074;2024-02-15T03:16:23;12.60;99.90
18658;DHT22;9458;50.942;5.074;2024-02-15T03:18:52;12.60;99.90
18658;DHT22;9458;50.942;5.074;2024-02-15T03:21:19;12.60;99.90
18658;DHT22;9458;50.942;5.074;2024-02-15T03:23:46;12.60;99.90
18658;DHT22;9458;50.942;5.074;2024-02-15T03:26:13;12.60;99.90
18658;DHT22;9458;50.942;5.074;2024-02-15T03:28:40;12.70;99.90
18658;DHT22;9458;50.942;5.074;2024-02-15T03:31:07;12.70;99.90
18658;DHT22;9458;50.942;5.074;2024-02-15T03:33:33;12.70;99.90
18658;DHT22;9458;50.942;5.074;2024-02-15T03:36:02;12.70;99.90
18658;DHT22;9458;50.942;5.074;2024-02-15T03:38:41;12.70;99.90
18658;DHT22;9458;50.942;5.074;2024-02-15T03:41:10;12.70;99.90
18658;DHT22;9458;50.942;5.074;2024-02-15T03:43:37;12.60;99.90
18658;DHT22;9458;50.942;5.074;2024-02-15T03:46:04;12.60;99.90
18658;DHT22;9458;50.942;5.074;2024-02-15T03:48:32;12.70;99.90
18658;DHT22;9458;50.942;5.074;2024-02-15T03:50:59;12.60;99.90
18658;DHT22;9458;50.942;5.074;2024-02-15T03:53:28;12.50;99.90
18658;DHT22;9458;50.942;5.074;2024-02-15T03:55:56;12.60;99.90
18658;DHT22;9458;50.942;5.074;2024-02-15T03:58:23;12.60;99.90
18658;DHT22;9458;50.942;5.074;2024-02-15T04:00:50;12.60;99.90
18658;DHT22;9458;50.942;5.074;2024-02-15T04:03:17;12.60;99.90
18658;DHT22;9458;50.942;5.074;2024-02-15T04:05:44;12.60;99.90
18658;DHT22;9458;50.942;5.074;2024-02-15T04:08:10;12.70;99.90
18658;DHT22;9458;50.942;5.074;2024-02-15T04:10:39;12.70;99.90
18658;DHT22;9458;50.942;5.074;2024-02-15T04:13:05;12.60;99.90
18658;DHT22;9458;50.942;5.074;2024-02-15T04:15:32;12.60;99.90
18658;DHT22;9458;50.942;5.074;2024-02-15T04:18:00;12.60;99.90
18658;DHT22;9458;50.942;5.074;2024-02-15T04:20:27;12.70;99.90
18658;DHT22;9458;50.942;5.074;2024-02-15T04:22:54;12.60;99.90
18658;DHT22;9458;50.942;5.074;2024-02-15T04:25:23;12.60;99.90
18658;DHT22;9458;50.942;5.074;2024-02-15T04:27:54;12.50;99.90
18658;DHT22;9458;50.942;5.074;2024-02-15T04:30:23;12.50;99.90
18658;DHT22;9458;50.942;5.074;2024-02-15T04:32:50;12.40;99.90
18658;DHT22;9458;50.942;5.074;2024-02-15T04:35:17;12.30;99.90
18658;DHT22;9458;50.942;5.074;2024-02-15T04:37:44;12.40;99.90
18658;DHT22;9458;50.942;5.074;2024-02-15T04:40:12;12.40;99.90
18658;DHT22;9458;50.942;5.074;2024-02-15T04:42:39;12.40;99.90
18658;DHT22;9458;50.942;5.074;2024-02-15T04:45:09;12.30;99.90
18658;DHT22;9458;50.942;5.074;2024-02-15T04:47:38;12.40;99.90
18658;DHT22;9458;50.942;5.074;2024-02-15T04:50:06;12.40;99.90
18658;DHT22;9458;50.942;5.074;2024-02-15T04:52:33;12.40;99.90
18658;DHT22;9458;50.942;5.074;2024-02-15T04:55:00;12.50;99.90
18658;DHT22;9458;50.942;5.074;2024-02-15T04:57:27;12.40;99.90
18658;DHT22;9458;50.942;5.074;2024-02-15T04:59:55;12.40;99.90
18658;DHT22;9458;50.942;5.074;2024-02-15T05:02:26;12.40;99.90
18658;DHT22;9458;50.942;5.074;2024-02-15T05:04:53;12.40;99.90
18658;DHT22;9458;50.942;5.074;2024-02-15T05:07:21;12.40;99.90
18658;DHT22;9458;50.942;5.074;2024-02-15T05:09:48;12.50;99.90
18658;DHT22;9458;50.942;5.074;2024-02-15T05:12:21;12.50;99.90
18658;DHT22;9458;50.942;5.074;2024-02-15T05:14:48;12.50;99.90
18658;DHT22;9458;50.942;5.074;2024-02-15T05:17:16;12.50;99.90
18658;DHT22;9458;50.942;5.074;2024-02-15T05:19:44;12.50;99.90
18658;DHT22;9458;50.942;5.074;2024-02-15T05:22:11;12.50;99.90
18658;DHT22;9458;50.942;5.074;2024-02-15T05:24:38;12.60;99.90
18658;DHT22;9458;50.942;5.074;2024-02-15T05:27:05;12.50;99.90
18658;DHT22;9458;50.942;5.074;2024-02-15T05:29:33;12.60;99.90
18658;DHT22;9458;50.942;5.074;2024-02-15T05:32:03;12.60;99.90
18658;DHT22;9458;50.942;5.074;2024-02-15T05:34:30;12.60;99.90
18658;DHT22;9458;50.942;5.074;2024-02-15T05:36:58;12.60;99.90
18658;DHT22;9458;50.942;5.074;2024-02-15T05:39:26;12.70;99.90
18658;DHT22;9458;50.942;5.074;2024-02-15T05:41:52;12.70;99.90
18658;DHT22;9458;50.942;5.074;2024-02-15T05:44:19;12.60;99.90
18658;DHT22;9458;50.942;5.074;2024-02-15T05:46:46;12.70;99.90
18658;DHT22;9458;50.942;5.074;2024-02-15T05:49:13;12.60;99.90
18658;DHT22;9458;50.942;5.074;2024-02-15T05:51:43;12.60;99.90
18658;DHT22;9458;50.942;5.074;2024-02-15T05:54:11;12.50;99.90
18658;DHT22;9458;50.942;5.074;2024-02-15T05:56:38;12.60;99.90
18658;DHT22;9458;50.942;5.074;2024-02-15T05:59:05;12.50;99.90
18658;DHT22;9458;50.942;5.074;2024-02-15T06:01:36;12.50;99.90
18658;DHT22;9458;50.942;5.074;2024-02-15T06:04:02;12.50;99.90
18658;DHT22;9458;50.942;5.074;2024-02-15T06:06:33;12.40;99.90
18658;DHT22;9458;50.942;5.074;2024-02-15T06:09:00;12.30;99.90
18658;DHT22;9458;50.942;5.074;2024-02-15T06:11:29;12.30;99.90
18658;DHT22;9458;50.942;5.074;2024-02-15T06:13:56;12.30;99.90
18658;DHT22;9458;50.942;5.074;2024-02-15T06:16:23;12.20;99.90
18658;DHT22;9458;50.942;5.074;2024-02-15T06:18:50;12.20;99.90
18658;DHT22;9458;50.942;5.074;2024-02-15T06:21:17;12.20;99.90
18658;DHT22;9458;50.942;5.074;2024-02-15T06:23:46;12.20;99.90
18658;DHT22;9458;50.942;5.074;2024-02-15T06:26:13;12.20;99.90
18658;DHT22;9458;50.942;5.074;2024-02-15T06:28:42;12.30;99.90
18658;DHT22;9458;50.942;5.074;2024-02-15T06:31:26;12.30;99.90
18658;DHT22;9458;50.942;5.074;2024-02-15T06:34:10;12.30;99.90
18658;DHT22;9458;50.942;5.074;2024-02-15T06:36:55;12.20;99.90
18658;DHT22;9458;50.942;5.074;2024-02-15T06:39:40;12.30;99.90
18658;DHT22;9458;50.942;5.074;2024-02-15T06:42:10;12.30;99.90
18658;DHT22;9458;50.942;5.074;2024-02-15T06:44:41;12.30;99.90
18658;DHT22;9458;50.942;5.074;2024-02-15T06:47:08;12.40;99.90
18658;DHT22;9458;50.942;5.074;2024-02-15T06:49:36;12.30;99.90
18658;DHT22;9458;50.942;5.074;2024-02-15T06:52:05;12.40;99.90
18658;DHT22;9458;50.942;5.074;2024-02-15T06:54:32;12.40;99.90
18658;DHT22;9458;50.942;5.074;2024-02-15T06:56:59;12.40;99.90
18658;DHT22;9458;50.942;5.074;2024-02-15T06:59:27;12.40;99.90
18658;DHT22;9458;50.942;5.074;2024-02-15T07:01:56;12.40;99.90
18658;DHT22;9458;50.942;5.074;2024-02-15T07:04:23;12.50;99.90
18658;DHT22;9458;50.942;5.074;2024-02-15T07:06:51;12.50;99.90
18658;DHT22;9458;50.942;5.074;2024-02-15T07:09:19;12.40;99.90
18658;DHT22;9458;50.942;5.074;2024-02-15T07:11:48;12.50;99.90
18658;DHT22;9458;50.942;5.074;2024-02-15T07:14:17;12.40;99.90
18658;DHT22;9458;50.942;5.074;2024-02-15T07:16:46;12.40;99.90
18658;DHT22;9458;50.942;5.074;2024-02-15T07:19:15;12.40;99.90
18658;DHT22;9458;50.942;5.074;2024-02-15T07:21:42;12.50;99.90
18658;DHT22;9458;50.942;5.074;2024-02-15T07:24:09;12.50;99.90
18658;DHT22;9458;50.942;5.074;2024-02-15T07:26:36;12.50;99.90
18658;DHT22;9458;50.942;5.074;2024-02-15T07:29:03;12.50;99.90
18658;DHT22;9458;50.942;5.074;2024-02-15T07:31:33;12.50;99.90
18658;DHT22;9458;50.942;5.074;2024-02-15T07:34:00;12.50;99.90
18658;DHT22;9458;50.942;5.074;2024-02-15T07:36:28;12.60;99.90
18658;DHT22;9458;50.942;5.074;2024-02-15T07:38:57;12.60;99.90
18658;DHT22;9458;50.942;5.074;2024-02-15T07:41:26;12.60;99.90
18658;DHT22;9458;50.942;5.074;2024-02-15T07:43:53;12.60;99.90
18658;DHT22;9458;50.942;5.074;2024-02-15T07:46:20;12.60;99.90
18658;DHT22;9458;50.942;5.074;2024-02-15T07:48:47;12.60;99.90
18658;DHT22;9458;50.942;5.074;2024-02-15T07:51:15;12.70;99.90
18658;DHT22;9458;50.942;5.074;2024-02-15T07:53:45;12.70;99.90
18658;DHT22;9458;50.942;5.074;2024-02-15T07:56:12;12.80;99.90
18658;DHT22;9458;50.942;5.074;2024-02-15T07:58:39;12.80;99.90
18658;DHT22;9458;50.942;5.074;2024-02-15T08:01:08;12.90;99.90
18658;DHT22;9458;50.942;5.074;2024-02-15T08:03:35;12.90;99.90
18658;DHT22;9458;50.942;5.074;2024-02-15T08:06:00;12.90;99.90
18658;DHT22;9458;50.942;5.074;2024-02-15T08:08:32;12.90;99.90
18658;DHT22;9458;50.942;5.074;2024-02-15T08:11:01;13.00;99.90
18658;DHT22;9458;50.942;5.074;2024-02-15T08:13:28;12.90;99.90
18658;DHT22;9458;50.942;5.074;2024-02-15T08:15:55;13.00;99.90
18658;DHT22;9458;50.942;5.074;2024-02-15T08:18:22;13.00;99.90
18658;DHT22;9458;50.942;5.074;2024-02-15T08:20:50;13.00;99.90
18658;DHT22;9458;50.942;5.074;2024-02-15T08:23:17;13.00;99.90
18658;DHT22;9458;50.942;5.074;2024-02-15T08:25:44;13.00;99.90
18658;DHT22;9458;50.942;5.074;2024-02-15T08:28:13;13.00;99.90
18658;DHT22;9458;50.942;5.074;2024-02-15T08:30:40;13.10;99.90
18658;DHT22;9458;50.942;5.074;2024-02-15T08:33:07;13.10;99.90
18658;DHT22;9458;50.942;5.074;2024-02-15T08:35:36;13.10;99.90
18658;DHT22;9458;50.942;5.074;2024-02-15T08:38:05;13.10;99.90
18658;DHT22;9458;50.942;5.074;2024-02-15T08:40:32;13.10;99.90
18658;DHT22;9458;50.942;5.074;2024-02-15T08:43:00;13.10;99.90
18658;DHT22;9458;50.942;5.074;2024-02-15T08:45:29;13.20;99.90
18658;DHT22;9458;50.942;5.074;2024-02-15T08:47:56;13.30;99.90
18658;DHT22;9458;50.942;5.074;2024-02-15T08:50:23;13.30;99.90
18658;DHT22;9458;50.942;5.074;2024-02-15T08:52:50;13.40;99.90
18658;DHT22;9458;50.942;5.074;2024-02-15T08:55:17;13.40;99.90
18658;DHT22;9458;50.942;5.074;2024-02-15T08:57:46;13.50;99.90
18658;DHT22;9458;50.942;5.074;2024-02-15T09:00:13;13.60;99.90
18658;DHT22;9458;50.942;5.074;2024-02-15T09:02:43;13.70;99.90
18658;DHT22;9458;50.942;5.074;2024-02-15T09:05:11;13.70;99.90
18658;DHT22;9458;50.942;5.074;2024-02-15T09:07:40;13.80;99.90
18658;DHT22;9458;50.942;5.074;2024-02-15T09:10:08;13.90;99.90
18658;DHT22;9458;50.942;5.074;2024-02-15T09:12:36;14.00;99.90
18658;DHT22;9458;50.942;5.074;2024-02-15T09:15:06;14.00;99.90
18658;DHT22;9458;50.942;5.074;2024-02-15T09:17:33;14.00;99.90
18658;DHT22;9458;50.942;5.074;2024-02-15T09:20:07;14.00;99.90
18658;DHT22;9458;50.942;5.074;2024-02-15T09:22:39;13.90;99.90
18658;DHT22;9458;50.942;5.074;2024-02-15T09:25:07;13.80;99.90
18658;DHT22;9458;50.942;5.074;2024-02-15T09:27:34;13.80;99.90
18658;DHT22;9458;50.942;5.074;2024-02-15T09:30:02;13.80;99.90
18658;DHT22;9458;50.942;5.074;2024-02-15T09:32:33;13.90;99.90
18658;DHT22;9458;50.942;5.074;2024-02-15T09:35:00;14.00;99.90
18658;DHT22;9458;50.942;5.074;2024-02-15T09:37:28;14.10;99.90
18658;DHT22;9458;50.942;5.074;2024-02-15T09:39:58;14.30;99.90
18658;DHT22;9458;50.942;5.074;2024-02-15T09:42:30;14.30;99.90
18658;DHT22;9458;50.942;5.074;2024-02-15T09:44:59;14.40;99.90
18658;DHT22;9458;50.942;5.074;2024-02-15T09:47:27;14.50;99.90
18658;DHT22;9458;50.942;5.074;2024-02-15T09:49:57;14.60;99.90
18658;DHT22;9458;50.942;5.074;2024-02-15T09:52:26;14.50;99.90
18658;DHT22;9458;50.942;5.074;2024-02-15T09:54:58;14.50;99.90
18658;DHT22;9458;50.942;5.074;2024-02-15T09:57:26;14.50;99.90
18658;DHT22;9458;50.942;5.074;2024-02-15T09:59:54;14.50;99.90
18658;DHT22;9458;50.942;5.074;2024-02-15T10:02:22;14.50;99.90
18658;DHT22;9458;50.942;5.074;2024-02-15T10:04:49;14.60;99.90
18658;DHT22;9458;50.942;5.074;2024-02-15T10:07:17;14.60;99.90
18658;DHT22;9458;50.942;5.074;2024-02-15T10:09:44;14.60;99.90
18658;DHT22;9458;50.942;5.074;2024-02-15T10:12:12;14.60;99.90
18658;DHT22;9458;50.942;5.074;2024-02-15T10:14:44;14.70;99.90
18658;DHT22;9458;50.942;5.074;2024-02-15T10:17:15;14.80;99.90
18658;DHT22;9458;50.942;5.074;2024-02-15T10:19:43;14.80;99.90
18658;DHT22;9458;50.942;5.074;2024-02-15T10:22:12;14.90;99.90
18658;DHT22;9458;50.942;5.074;2024-02-15T10:24:40;15.00;99.90
18658;DHT22;9458;50.942;5.074;2024-02-15T10:27:07;15.00;99.90
18658;DHT22;9458;50.942;5.074;2024-02-15T10:29:37;14.90;99.90
18658;DHT22;9458;50.942;5.074;2024-02-15T10:32:05;14.90;99.90
18658;DHT22;9458;50.942;5.074;2024-02-15T10:34:36;15.00;99.90
18658;DHT22;9458;50.942;5.074;2024-02-15T10:37:10;15.00;99.90
18658;DHT22;9458;50.942;5.074;2024-02-15T10:39:38;15.20;99.90
18658;DHT22;9458;50.942;5.074;2024-02-15T10:42:06;15.30;99.90
18658;DHT22;9458;50.942;5.074;2024-02-15T10:44:38;15.30;99.90
18658;DHT22;9458;50.942;5.074;2024-02-15T10:47:06;15.40;99.90
18658;DHT22;9458;50.942;5.074;2024-02-15T10:49:33;15.40;99.90
18658;DHT22;9458;50.942;5.074;2024-02-15T10:52:03;15.50;99.90
18658;DHT22;9458;50.942;5.074;2024-02-15T10:54:38;15.60;99.90
18658;DHT22;9458;50.942;5.074;2024-02-15T10:57:07;15.70;99.90
18658;DHT22;9458;50.942;5.074;2024-02-15T10:59:36;15.70;99.90
18658;DHT22;9458;50.942;5.074;2024-02-15T11:02:14;15.70;99.90
18658;DHT22;9458;50.942;5.074;2024-02-15T11:04:46;15.80;99.90
18658;DHT22;9458;50.942;5.074;2024-02-15T11:07:14;15.80;99.90
18658;DHT22;9458;50.942;5.074;2024-02-15T11:09:43;15.80;99.90
18658;DHT22;9458;50.942;5.074;2024-02-15T11:12:11;15.80;99.90
18658;DHT22;9458;50.942;5.074;2024-02-15T11:14:38;15.80;99.90
18658;DHT22;9458;50.942;5.074;2024-02-15T11:17:04;15.90;99.90
18658;DHT22;9458;50.942;5.074;2024-02-15T11:19:43;16.00;99.90
18658;DHT22;9458;50.942;5.074;2024-02-15T11:22:14;15.90;99.90
18658;DHT22;9458;50.942;5.074;2024-02-15T11:24:45;16.00;99.90
18658;DHT22;9458;50.942;5.074;2024-02-15T11:27:14;16.10;99.90
18658;DHT22;9458;50.942;5.074;2024-02-15T11:29:50;16.00;99.90
18658;DHT22;9458;50.942;5.074;2024-02-15T11:32:35;16.20;99.90
18658;DHT22;9458;50.942;5.074;2024-02-15T11:35:06;16.20;99.90
18658;DHT22;9458;50.942;5.074;2024-02-15T11:37:56;16.20;99.90
18658;DHT22;9458;50.942;5.074;2024-02-15T11:40:27;16.20;99.90
18658;DHT22;9458;50.942;5.074;2024-02-15T11:42:55;16.20;99.90
18658;DHT22;9458;50.942;5.074;2024-02-15T11:45:28;16.10;99.90
18658;DHT22;9458;50.942;5.074;2024-02-15T11:47:59;16.10;99.90
18658;DHT22;9458;50.942;5.074;2024-02-15T11:50:30;16.10;99.90
18658;DHT22;9458;50.942;5.074;2024-02-15T11:53:01;16.20;99.90
18658;DHT22;9458;50.942;5.074;2024-02-15T11:55:35;16.30;99.90
18658;DHT22;9458;50.942;5.074;2024-02-15T11:58:05;16.30;99.90
18658;DHT22;9458;50.942;5.074;2024-02-15T12:00:42;16.30;99.90
18658;DHT22;9458;50.942;5.074;2024-02-15T12:03:27;16.30;99.90
18658;DHT22;9458;50.942;5.074;2024-02-15T12:06:18;16.40;99.90
18658;DHT22;9458;50.942;5.074;2024-02-15T12:09:02;16.40;99.90
18658;DHT22;9458;50.942;5.074;2024-02-15T12:11:47;16.30;99.90
18658;DHT22;9458;50.942;5.074;2024-02-15T12:14:40;16.20;99.90
18658;DHT22;9458;50.942;5.074;2024-02-15T12:17:25;16.30;99.90
18658;DHT22;9458;50.942;5.074;2024-02-15T12:20:10;16.40;99.90
18658;DHT22;9458;50.942;5.074;2024-02-15T12:22:39;16.50;99.90
18658;DHT22;9458;50.942;5.074;2024-02-15T12:25:07;16.60;99.90
18658;DHT22;9458;50.942;5.074;2024-02-15T12:27:38;16.70;99.90
18658;DHT22;9458;50.942;5.074;2024-02-15T12:30:05;16.80;99.90
18658;DHT22;9458;50.942;5.074;2024-02-15T12:32:34;16.80;99.90
18658;DHT22;9458;50.942;5.074;2024-02-15T12:35:10;16.80;99.90
18658;DHT22;9458;50.942;5.074;2024-02-15T12:37:42;16.80;99.90
18658;DHT22;9458;50.942;5.074;2024-02-15T12:40:10;16.70;99.90
18658;DHT22;9458;50.942;5.074;2024-02-15T12:42:41;16.70;99.90
18658;DHT22;9458;50.942;5.074;2024-02-15T12:45:08;16.80;99.90
18658;DHT22;9458;50.942;5.074;2024-02-15T12:47:43;16.70;99.90
18658;DHT22;9458;50.942;5.074;2024-02-15T12:50:13;16.80;99.90
18658;DHT22;9458;50.942;5.074;2024-02-15T12:52:40;16.80;99.90
18658;DHT22;9458;50.942;5.074;2024-02-15T12:55:14;16.70;99.90
18658;DHT22;9458;50.942;5.074;2024-02-15T12:57:42;16.70;99.90
18658;DHT22;9458;50.942;5.074;2024-02-15T13:00:10;16.70;99.90
18658;DHT22;9458;50.942;5.074;2024-02-15T13:02:43;16.70;99.90
18658;DHT22;9458;50.942;5.074;2024-02-15T13:05:13;16.70;99.90
18658;DHT22;9458;50.942;5.074;2024-02-15T13:07:40;16.70;99.90
18658;DHT22;9458;50.942;5.074;2024-02-15T13:10:08;16.70;99.90
18658;DHT22;9458;50.942;5.074;2024-02-15T13:12:37;16.70;99.90
18658;DHT22;9458;50.942;5.074;2024-02-15T13:15:04;16.70;99.90
18658;DHT22;9458;50.942;5.074;2024-02-15T13:17:32;16.60;99.90
18658;DHT22;9458;50.942;5.074;2024-02-15T13:20:00;16.50;99.90
18658;DHT22;9458;50.942;5.074;2024-02-15T13:22:31;16.50;99.90
18658;DHT22;9458;50.942;5.074;2024-02-15T13:24:58;16.50;99.90
18658;DHT22;9458;50.942;5.074;2024-02-15T13:27:25;16.50;99.90
18658;DHT22;9458;50.942;5.074;2024-02-15T13:29:53;16.50;99.90
18658;DHT22;9458;50.942;5.074;2024-02-15T13:32:21;16.60;99.90
18658;DHT22;9458;50.942;5.074;2024-02-15T13:34:48;16.70;99.90
18658;DHT22;9458;50.942;5.074;2024-02-15T13:37:18;16.80;99.90
18658;DHT22;9458;50.942;5.074;2024-02-15T13:39:46;16.90;99.90
18658;DHT22;9458;50.942;5.074;2024-02-15T13:42:13;17.00;99.90
18658;DHT22;9458;50.942;5.074;2024-02-15T13:44:40;17.00;99.90
18658;DHT22;9458;50.942;5.074;2024-02-15T13:47:08;17.10;99.90
18658;DHT22;9458;50.942;5.074;2024-02-15T13:49:37;17.10;99.90
18658;DHT22;9458;50.942;5.074;2024-02-15T13:52:04;17.10;99.90
18658;DHT22;9458;50.942;5.074;2024-02-15T13:54:32;17.10;99.90
18658;DHT22;9458;50.942;5.074;2024-02-15T13:56:59;17.10;99.90
18658;DHT22;9458;50.942;5.074;2024-02-15T13:59:26;17.10;99.90
18658;DHT22;9458;50.942;5.074;2024-02-15T14:01:54;17.20;99.90
18658;DHT22;9458;50.942;5.074;2024-02-15T14:04:22;17.20;99.90
18658;DHT22;9458;50.942;5.074;2024-02-15T14:06:49;17.20;99.90
18658;DHT22;9458;50.942;5.074;2024-02-15T14:09:16;17.30;99.90
18658;DHT22;9458;50.942;5.074;2024-02-15T14:11:43;17.40;99.90
18658;DHT22;9458;50.942;5.074;2024-02-15T14:14:10;17.40;99.90
18658;DHT22;9458;50.942;5.074;2024-02-15T14:16:37;17.50;99.90
18658;DHT22;9458;50.942;5.074;2024-02-15T14:19:05;17.30;99.90
18658;DHT22;9458;50.942;5.074;2024-02-15T14:21:33;17.20;99.90
18658;DHT22;9458;50.942;5.074;2024-02-15T14:24:05;17.20;99.90
18658;DHT22;9458;50.942;5.074;2024-02-15T14:26:34;17.30;99.90
18658;DHT22;9458;50.942;5.074;2024-02-15T14:29:01;17.30;99.90
18658;DHT22;9458;50.942;5.074;2024-02-15T14:31:28;17.30;99.90
18658;DHT22;9458;50.942;5.074;2024-02-15T14:34:12;17.20;99.90
18658;DHT22;9458;50.942;5.074;2024-02-15T14:36:42;17.20;99.90
18658;DHT22;9458;50.942;5.074;2024-02-15T14:39:13;17.10;99.90
18658;DHT22;9458;50.942;5.074;2024-02-15T14:41:40;17.10;99.90
18658;DHT22;9458;50.942;5.074;2024-02-15T14:44:09;17.10;99.90
18658;DHT22;9458;50.942;5.074;2024-02-15T14:46:35;17.00;99.90
18658;DHT22;9458;50.942;5.074;2024-02-15T14:49:02;17.00;99.90
18658;DHT22;9458;50.942;5.074;2024-02-15T14:51:30;17.00;99.90
18658;DHT22;9458;50.942;5.074;2024-02-15T14:53:59;17.10;99.90
18658;DHT22;9458;50.942;5.074;2024-02-15T14:56:26;17.10;99.90
18658;DHT22;9458;50.942;5.074;2024-02-15T14:59:00;17.00;99.90
18658;DHT22;9458;50.942;5.074;2024-02-15T15:01:27;17.00;99.90
18658;DHT22;9458;50.942;5.074;2024-02-15T15:03:56;16.80;99.90
18658;DHT22;9458;50.942;5.074;2024-02-15T15:06:24;16.70;99.90
18658;DHT22;9458;50.942;5.074;2024-02-15T15:09:10;16.60;99.90
18658;DHT22;9458;50.942;5.074;2024-02-15T15:11:55;16.60;99.90
18658;DHT22;9458;50.942;5.074;2024-02-15T15:14:39;16.50;99.90
18658;DHT22;9458;50.942;5.074;2024-02-15T15:17:06;16.50;99.90
18658;DHT22;9458;50.942;5.074;2024-02-15T15:19:36;16.50;99.90
18658;DHT22;9458;50.942;5.074;2024-02-15T15:22:03;16.60;99.90
18658;DHT22;9458;50.942;5.074;2024-02-15T15:24:32;16.60;99.90
18658;DHT22;9458;50.942;5.074;2024-02-15T15:26:59;16.50;99.90
18658;DHT22;9458;50.942;5.074;2024-02-15T15:29:26;16.50;99.90
18658;DHT22;9458;50.942;5.074;2024-02-15T15:31:53;16.40;99.90
18658;DHT22;9458;50.942;5.074;2024-02-15T15:34:21;16.30;99.90
18658;DHT22;9458;50.942;5.074;2024-02-15T15:36:48;16.30;99.90
18658;DHT22;9458;50.942;5.074;2024-02-15T15:39:15;16.20;99.90
18658;DHT22;9458;50.942;5.074;2024-02-15T15:41:44;16.10;99.90
18658;DHT22;9458;50.942;5.074;2024-02-15T15:44:12;16.10;99.90
18658;DHT22;9458;50.942;5.074;2024-02-15T15:46:38;16.00;99.90
18658;DHT22;9458;50.942;5.074;2024-02-15T15:49:06;16.00;99.90
18658;DHT22;9458;50.942;5.074;2024-02-15T15:51:33;16.00;99.90
18658;DHT22;9458;50.942;5.074;2024-02-15T15:53:59;16.00;99.90
18658;DHT22;9458;50.942;5.074;2024-02-15T15:56:28;16.00;99.90